メルボルン の空港の天気 - METARとTAF

メルボルン空港 ( YMML / MEL ) - オーストラリア ビクトリア州、Melbourne Airport
飛行場実況気象(Metar)
観測時間09/25 11:30 AEST (09/25 01:30 UTC)
風向・風速南 6m/s
視程10km以上
天気現象
少しの雲 雲底高度 550m
全天の8割程度の雲 雲底高度 730m
全天の8割程度の雲 雲底高度 1280m
気温12℃
湿度58%
気圧1028hPa
METARYMML 250130Z 17011KT 9999 FEW018 BKN024 BKN042 12/04 Q1028 NOSIG
過去の天気等 Google飛行場航空写真 Wunderground天気予報

過去48時間のMETAR

飛行場予報(TAF)
発表時間: 9/25 09:10 AEST (9/24 23:10 UTC)
予報対象時間: 25日10時 AEST ~ 26日16時 AEST
風向・風速南 6m/s
視程10km以上
全天の4割程度の雲 雲底高度 1220m
25日22時 AEST から
風向・風速不定 3m/s
視程10km以上
なし
26日10時 AEST から
風向・風速北 4m/s
視程10km以上
なし
TAF YMML 242310Z 2500/2606 18012KT 9999 SCT040
FM251200 VRB05KT CAVOK
FM260000 36008KT CAVOK